Point Arena, CA (95468)

8:31 AM PDT on August 31, 2015 (GMT -0700)
Irish Beach | | Change Station
CLOSE
Current Station
Personal Weather Station
Location: Manchester, CA
Elevation: 276 ft
Nearby Weather Stations

Elev 276 ft 39.02 °N, 123.69 °W | Updated 6 minutes ago

Clear
Clear
61.1 °F
Feels Like 61.1 °F
N
1.0
Wind Variable Wind from North

Today
High -- | Low -- °F
--% Chance of Precip.
Yesterday
High -- | Low -- °F
Precip. -- in
6:42 AM 7:46 PM
Waning Gibbous, 95% visible
Pressure 29.95 in
Visibility 10.0 miles
Clouds Clear
Dew Point 57 °F
Humidity 85%
Rainfall 0.00 in
Snow Depth Not available.
UV 1 out of 12
Pollen 8.00 out of 12
Air Quality Not available.
Flu Activity Not available.
METAR KUKI 311456Z AUTO 00000KT 10SM CLR 14/10 A2997 RMK AO2 SLP142 T01390100 51004
Pressure 29.95 in
Visibility 10.0 miles
Clouds Clear
Dew Point 57 °F
Humidity 85%
Rainfall 0.00 in
Snow Depth Not available.
UV 1 out of 12
Pollen 8.00 out of 12
Air Quality Not available.
Flu Activity Not available.
METAR KUKI 311456Z AUTO 00000KT 10SM CLR 14/10 A2997 RMK AO2 SLP142 T01390100 51004

10-Day Weather Forecast

×

Almanac

Astronomy

Aug. 31, 2015 Rise Set
Actual Time
Civil Twilight
Nautical Twilight
Astronomical Twilight
Moon
Length of Visible Light
Length of Day
Tomorrow will be .
, % of the Moon is Illuminated

Today's Extremes

State Highs State Lows

Community

WunderPhotos

Upload Photos

1,851,282 photos uploaded!

WunderBlogs® & News

Nearby

Air Quality

  Air Quality AQ Index Pollutant
Not available.

Snow Depth

Station Depth Elevation

Earthquake Activity

City Distance Mag. Time & Date
Minimum magnitude displayed is 2.5.

Coastal Water Temperatures

Place Temperature

Stations

Nearby Weather Stations

Station Location Temp. Windchill Dew Point Humidity Wind Precip. Elev Updated Type